sensor_id;sensor_type;location;lat;lon;timestamp;P1;durP1;ratioP1;P2;durP2;ratioP2
46290;SDS011;32023;44.444;26.006;2022-12-29T00:01:14;43.55;;;21.33;;
46290;SDS011;32023;44.444;26.006;2022-12-29T00:03:45;45.47;;;22.02;;
46290;SDS011;32023;44.444;26.006;2022-12-29T00:06:11;45.30;;;21.27;;
46290;SDS011;32023;44.444;26.006;2022-12-29T00:08:41;39.40;;;20.67;;
46290;SDS011;32023;44.444;26.006;2022-12-29T00:11:10;46.10;;;21.17;;
46290;SDS011;32023;44.444;26.006;2022-12-29T00:13:38;36.30;;;19.88;;
46290;SDS011;32023;44.444;26.006;2022-12-29T00:16:23;43.40;;;21.63;;
46290;SDS011;32023;44.444;26.006;2022-12-29T00:18:53;42.15;;;20.02;;
46290;SDS011;32023;44.444;26.006;2022-12-29T00:21:20;44.83;;;22.50;;
46290;SDS011;32023;44.444;26.006;2022-12-29T00:24:21;45.50;;;21.85;;
46290;SDS011;32023;44.444;26.006;2022-12-29T00:30:13;48.38;;;22.83;;
46290;SDS011;32023;44.444;26.006;2022-12-29T00:33:07;46.25;;;23.17;;
46290;SDS011;32023;44.444;26.006;2022-12-29T00:35:54;53.63;;;24.23;;
46290;SDS011;32023;44.444;26.006;2022-12-29T00:38:27;53.65;;;26.30;;
46290;SDS011;32023;44.444;26.006;2022-12-29T00:41:15;55.83;;;24.52;;
46290;SDS011;32023;44.444;26.006;2022-12-29T00:44:01;50.90;;;23.92;;
46290;SDS011;32023;44.444;26.006;2022-12-29T00:46:30;50.22;;;24.23;;
46290;SDS011;32023;44.444;26.006;2022-12-29T00:49:01;57.50;;;25.13;;
46290;SDS011;32023;44.444;26.006;2022-12-29T00:51:46;49.78;;;24.20;;
46290;SDS011;32023;44.444;26.006;2022-12-29T00:54:14;47.10;;;25.00;;
46290;SDS011;32023;44.444;26.006;2022-12-29T01:05:04;58.28;;;27.75;;
46290;SDS011;32023;44.444;26.006;2022-12-29T01:07:31;57.80;;;25.80;;
46290;SDS011;32023;44.444;26.006;2022-12-29T01:10:04;54.45;;;26.08;;
46290;SDS011;32023;44.444;26.006;2022-12-29T01:12:36;53.30;;;25.63;;
46290;SDS011;32023;44.444;26.006;2022-12-29T01:15:06;55.13;;;26.63;;
46290;SDS011;32023;44.444;26.006;2022-12-29T01:20:23;63.20;;;28.27;;
46290;SDS011;32023;44.444;26.006;2022-12-29T01:22:55;54.65;;;27.92;;
46290;SDS011;32023;44.444;26.006;2022-12-29T01:25:21;58.03;;;27.85;;
46290;SDS011;32023;44.444;26.006;2022-12-29T01:27:49;52.22;;;27.48;;
46290;SDS011;32023;44.444;26.006;2022-12-29T01:30:15;49.08;;;26.23;;
46290;SDS011;32023;44.444;26.006;2022-12-29T01:32:42;55.33;;;26.95;;
46290;SDS011;32023;44.444;26.006;2022-12-29T01:35:08;60.65;;;27.58;;
46290;SDS011;32023;44.444;26.006;2022-12-29T01:37:35;56.45;;;27.55;;
46290;SDS011;32023;44.444;26.006;2022-12-29T01:40:02;58.40;;;27.70;;
46290;SDS011;32023;44.444;26.006;2022-12-29T01:42:28;56.83;;;29.50;;
46290;SDS011;32023;44.444;26.006;2022-12-29T01:45:00;56.17;;;28.02;;
46290;SDS011;32023;44.444;26.006;2022-12-29T01:47:57;61.67;;;28.80;;
46290;SDS011;32023;44.444;26.006;2022-12-29T01:50:34;58.72;;;29.02;;
46290;SDS011;32023;44.444;26.006;2022-12-29T01:53:16;60.95;;;29.70;;
46290;SDS011;32023;44.444;26.006;2022-12-29T01:55:48;60.97;;;28.63;;
46290;SDS011;32023;44.444;26.006;2022-12-29T01:58:21;56.03;;;28.27;;
46290;SDS011;32023;44.444;26.006;2022-12-29T02:00:51;54.50;;;28.52;;
46290;SDS011;32023;44.444;26.006;2022-12-29T02:03:21;51.85;;;27.23;;
46290;SDS011;32023;44.444;26.006;2022-12-29T02:11:11;59.15;;;28.35;;
46290;SDS011;32023;44.444;26.006;2022-12-29T02:13:38;56.97;;;28.77;;
46290;SDS011;32023;44.444;26.006;2022-12-29T02:22:44;55.10;;;28.85;;
46290;SDS011;32023;44.444;26.006;2022-12-29T02:30:56;63.15;;;29.25;;
46290;SDS011;32023;44.444;26.006;2022-12-29T02:44:34;63.03;;;27.98;;
46290;SDS011;32023;44.444;26.006;2022-12-29T02:47:15;54.38;;;27.00;;
46290;SDS011;32023;44.444;26.006;2022-12-29T02:49:50;56.67;;;29.52;;
46290;SDS011;32023;44.444;26.006;2022-12-29T02:52:23;56.67;;;29.30;;
46290;SDS011;32023;44.444;26.006;2022-12-29T02:54:58;62.50;;;30.13;;
46290;SDS011;32023;44.444;26.006;2022-12-29T03:11:52;106.78;;;40.10;;
46290;SDS011;32023;44.444;26.006;2022-12-29T03:20:27;160.40;;;52.30;;
46290;SDS011;32023;44.444;26.006;2022-12-29T03:26:15;76.40;;;34.85;;
46290;SDS011;32023;44.444;26.006;2022-12-29T03:28:50;64.70;;;32.28;;
46290;SDS011;32023;44.444;26.006;2022-12-29T03:31:18;63.03;;;29.73;;
46290;SDS011;32023;44.444;26.006;2022-12-29T03:33:47;60.70;;;28.95;;
46290;SDS011;32023;44.444;26.006;2022-12-29T03:36:23;55.65;;;27.33;;
46290;SDS011;32023;44.444;26.006;2022-12-29T03:39:02;62.03;;;28.02;;
46290;SDS011;32023;44.444;26.006;2022-12-29T03:41:36;54.25;;;26.80;;
46290;SDS011;32023;44.444;26.006;2022-12-29T03:44:07;51.50;;;24.45;;
46290;SDS011;32023;44.444;26.006;2022-12-29T03:46:55;47.13;;;25.05;;
46290;SDS011;32023;44.444;26.006;2022-12-29T03:49:27;45.15;;;23.63;;
46290;SDS011;32023;44.444;26.006;2022-12-29T03:51:56;49.55;;;25.48;;
46290;SDS011;32023;44.444;26.006;2022-12-29T03:54:26;52.40;;;25.63;;
46290;SDS011;32023;44.444;26.006;2022-12-29T03:56:52;51.08;;;26.85;;
46290;SDS011;32023;44.444;26.006;2022-12-29T03:59:24;46.97;;;25.20;;
46290;SDS011;32023;44.444;26.006;2022-12-29T04:01:55;44.17;;;24.83;;
46290;SDS011;32023;44.444;26.006;2022-12-29T04:04:21;53.25;;;23.45;;
46290;SDS011;32023;44.444;26.006;2022-12-29T04:06:47;44.25;;;23.52;;
46290;SDS011;32023;44.444;26.006;2022-12-29T04:09:14;46.15;;;24.13;;
46290;SDS011;32023;44.444;26.006;2022-12-29T04:11:47;44.40;;;23.67;;
46290;SDS011;32023;44.444;26.006;2022-12-29T04:14:14;49.00;;;25.35;;
46290;SDS011;32023;44.444;26.006;2022-12-29T04:16:40;46.70;;;24.42;;
46290;SDS011;32023;44.444;26.006;2022-12-29T04:19:07;54.50;;;25.85;;
46290;SDS011;32023;44.444;26.006;2022-12-29T04:21:33;55.95;;;26.65;;
46290;SDS011;32023;44.444;26.006;2022-12-29T04:24:00;62.47;;;26.15;;
46290;SDS011;32023;44.444;26.006;2022-12-29T04:26:26;52.88;;;24.77;;
46290;SDS011;32023;44.444;26.006;2022-12-29T04:28:53;51.63;;;24.92;;
46290;SDS011;32023;44.444;26.006;2022-12-29T04:33:48;51.95;;;26.75;;
46290;SDS011;32023;44.444;26.006;2022-12-29T04:36:17;48.08;;;25.55;;
46290;SDS011;32023;44.444;26.006;2022-12-29T04:38:44;48.25;;;25.17;;
46290;SDS011;32023;44.444;26.006;2022-12-29T04:41:10;48.97;;;25.30;;
46290;SDS011;32023;44.444;26.006;2022-12-29T04:43:39;47.25;;;25.00;;
46290;SDS011;32023;44.444;26.006;2022-12-29T04:46:06;46.17;;;24.25;;
46290;SDS011;32023;44.444;26.006;2022-12-29T04:48:32;58.28;;;26.58;;
46290;SDS011;32023;44.444;26.006;2022-12-29T04:50:58;53.95;;;26.33;;
46290;SDS011;32023;44.444;26.006;2022-12-29T04:53:25;52.63;;;27.17;;
46290;SDS011;32023;44.444;26.006;2022-12-29T04:55:54;56.15;;;27.02;;
46290;SDS011;32023;44.444;26.006;2022-12-29T04:58:26;53.40;;;27.23;;
46290;SDS011;32023;44.444;26.006;2022-12-29T05:00:52;49.60;;;25.55;;
46290;SDS011;32023;44.444;26.006;2022-12-29T05:03:19;55.05;;;26.63;;
46290;SDS011;32023;44.444;26.006;2022-12-29T05:05:45;52.85;;;25.77;;
46290;SDS011;32023;44.444;26.006;2022-12-29T05:08:11;60.50;;;27.92;;
46290;SDS011;32023;44.444;26.006;2022-12-29T05:10:38;55.60;;;29.05;;
46290;SDS011;32023;44.444;26.006;2022-12-29T05:13:04;55.10;;;29.05;;
46290;SDS011;32023;44.444;26.006;2022-12-29T05:15:31;63.17;;;29.33;;
46290;SDS011;32023;44.444;26.006;2022-12-29T05:17:57;55.97;;;29.00;;
46290;SDS011;32023;44.444;26.006;2022-12-29T05:23:46;51.35;;;26.75;;
46290;SDS011;32023;44.444;26.006;2022-12-29T05:26:12;51.85;;;25.95;;
46290;SDS011;32023;44.444;26.006;2022-12-29T05:28:39;55.70;;;28.65;;
46290;SDS011;32023;44.444;26.006;2022-12-29T05:31:05;47.58;;;26.42;;
46290;SDS011;32023;44.444;26.006;2022-12-29T05:33:46;53.65;;;27.90;;
46290;SDS011;32023;44.444;26.006;2022-12-29T05:36:13;56.70;;;27.63;;
46290;SDS011;32023;44.444;26.006;2022-12-29T05:38:39;51.35;;;25.48;;
46290;SDS011;32023;44.444;26.006;2022-12-29T05:41:05;49.38;;;25.10;;
46290;SDS011;32023;44.444;26.006;2022-12-29T05:43:33;57.88;;;26.58;;
46290;SDS011;32023;44.444;26.006;2022-12-29T05:46:03;46.42;;;23.77;;
46290;SDS011;32023;44.444;26.006;2022-12-29T05:48:29;50.30;;;24.50;;
46290;SDS011;32023;44.444;26.006;2022-12-29T05:50:55;58.40;;;26.73;;
46290;SDS011;32023;44.444;26.006;2022-12-29T05:53:44;51.53;;;24.98;;
46290;SDS011;32023;44.444;26.006;2022-12-29T05:56:11;55.75;;;28.33;;
46290;SDS011;32023;44.444;26.006;2022-12-29T05:58:44;54.50;;;28.52;;
46290;SDS011;32023;44.444;26.006;2022-12-29T06:04:21;49.92;;;26.92;;
46290;SDS011;32023;44.444;26.006;2022-12-29T06:06:48;52.13;;;26.10;;
46290;SDS011;32023;44.444;26.006;2022-12-29T06:09:20;56.03;;;28.45;;
46290;SDS011;32023;44.444;26.006;2022-12-29T06:12:04;53.95;;;26.45;;
46290;SDS011;32023;44.444;26.006;2022-12-29T06:14:38;50.90;;;25.23;;
46290;SDS011;32023;44.444;26.006;2022-12-29T06:17:06;54.35;;;26.13;;
46290;SDS011;32023;44.444;26.006;2022-12-29T06:19:35;51.75;;;24.65;;
46290;SDS011;32023;44.444;26.006;2022-12-29T06:22:01;47.58;;;24.90;;
46290;SDS011;32023;44.444;26.006;2022-12-29T06:24:28;45.67;;;24.40;;
46290;SDS011;32023;44.444;26.006;2022-12-29T06:26:54;44.88;;;23.67;;
46290;SDS011;32023;44.444;26.006;2022-12-29T06:29:23;50.85;;;23.40;;
46290;SDS011;32023;44.444;26.006;2022-12-29T06:31:55;42.25;;;22.77;;
46290;SDS011;32023;44.444;26.006;2022-12-29T06:34:23;45.20;;;22.85;;
46290;SDS011;32023;44.444;26.006;2022-12-29T06:36:55;49.85;;;25.13;;
46290;SDS011;32023;44.444;26.006;2022-12-29T06:39:26;53.85;;;27.13;;
46290;SDS011;32023;44.444;26.006;2022-12-29T06:41:58;50.45;;;25.08;;
46290;SDS011;32023;44.444;26.006;2022-12-29T06:44:24;53.90;;;26.15;;
46290;SDS011;32023;44.444;26.006;2022-12-29T06:46:51;52.25;;;24.40;;
46290;SDS011;32023;44.444;26.006;2022-12-29T06:49:17;56.58;;;25.42;;
46290;SDS011;32023;44.444;26.006;2022-12-29T06:51:46;50.67;;;26.55;;
46290;SDS011;32023;44.444;26.006;2022-12-29T06:54:12;55.75;;;24.67;;
46290;SDS011;32023;44.444;26.006;2022-12-29T06:56:45;47.78;;;25.02;;
46290;SDS011;32023;44.444;26.006;2022-12-29T06:59:14;58.03;;;26.50;;
46290;SDS011;32023;44.444;26.006;2022-12-29T07:01:47;58.65;;;24.42;;
46290;SDS011;32023;44.444;26.006;2022-12-29T07:04:20;45.05;;;23.70;;
46290;SDS011;32023;44.444;26.006;2022-12-29T07:07:09;47.80;;;23.65;;
46290;SDS011;32023;44.444;26.006;2022-12-29T07:09:37;51.90;;;24.48;;
46290;SDS011;32023;44.444;26.006;2022-12-29T07:12:04;45.67;;;22.55;;
46290;SDS011;32023;44.444;26.006;2022-12-29T07:14:31;45.22;;;22.60;;
46290;SDS011;32023;44.444;26.006;2022-12-29T07:17:00;42.53;;;23.92;;
46290;SDS011;32023;44.444;26.006;2022-12-29T07:19:35;49.60;;;23.30;;
46290;SDS011;32023;44.444;26.006;2022-12-29T07:22:02;44.72;;;21.65;;
46290;SDS011;32023;44.444;26.006;2022-12-29T07:24:41;43.83;;;21.95;;
46290;SDS011;32023;44.444;26.006;2022-12-29T07:27:08;32.40;;;19.35;;
46290;SDS011;32023;44.444;26.006;2022-12-29T07:29:36;37.97;;;20.33;;
46290;SDS011;32023;44.444;26.006;2022-12-29T07:32:07;33.25;;;19.30;;
46290;SDS011;32023;44.444;26.006;2022-12-29T07:34:39;33.83;;;18.75;;
46290;SDS011;32023;44.444;26.006;2022-12-29T07:37:08;34.67;;;18.33;;
46290;SDS011;32023;44.444;26.006;2022-12-29T07:39:43;29.00;;;16.33;;
46290;SDS011;32023;44.444;26.006;2022-12-29T07:45:45;27.45;;;16.13;;
46290;SDS011;32023;44.444;26.006;2022-12-29T07:48:13;33.55;;;18.77;;
46290;SDS011;32023;44.444;26.006;2022-12-29T07:50:45;32.47;;;18.85;;
46290;SDS011;32023;44.444;26.006;2022-12-29T07:53:18;42.42;;;18.33;;
46290;SDS011;32023;44.444;26.006;2022-12-29T07:55:49;37.90;;;19.85;;
46290;SDS011;32023;44.444;26.006;2022-12-29T08:00:47;38.65;;;19.85;;
46290;SDS011;32023;44.444;26.006;2022-12-29T08:03:23;36.33;;;18.58;;
46290;SDS011;32023;44.444;26.006;2022-12-29T08:05:51;36.20;;;18.55;;
46290;SDS011;32023;44.444;26.006;2022-12-29T08:08:21;35.25;;;18.63;;
46290;SDS011;32023;44.444;26.006;2022-12-29T08:10:54;32.40;;;19.13;;
46290;SDS011;32023;44.444;26.006;2022-12-29T08:13:42;30.17;;;16.90;;
46290;SDS011;32023;44.444;26.006;2022-12-29T08:16:11;25.30;;;15.55;;
46290;SDS011;32023;44.444;26.006;2022-12-29T08:18:38;26.95;;;14.93;;
46290;SDS011;32023;44.444;26.006;2022-12-29T08:21:09;21.13;;;12.90;;
46290;SDS011;32023;44.444;26.006;2022-12-29T08:23:47;21.23;;;13.63;;
46290;SDS011;32023;44.444;26.006;2022-12-29T08:26:30;22.38;;;13.82;;
46290;SDS011;32023;44.444;26.006;2022-12-29T08:29:18;24.98;;;13.40;;
46290;SDS011;32023;44.444;26.006;2022-12-29T08:31:55;23.02;;;13.32;;
46290;SDS011;32023;44.444;26.006;2022-12-29T08:34:33;20.38;;;12.38;;
46290;SDS011;32023;44.444;26.006;2022-12-29T08:36:59;20.15;;;12.60;;
46290;SDS011;32023;44.444;26.006;2022-12-29T08:39:34;28.38;;;13.77;;
46290;SDS011;32023;44.444;26.006;2022-12-29T08:42:03;24.65;;;13.50;;
46290;SDS011;32023;44.444;26.006;2022-12-29T08:44:38;24.10;;;12.65;;
46290;SDS011;32023;44.444;26.006;2022-12-29T08:50:49;22.42;;;12.32;;
46290;SDS011;32023;44.444;26.006;2022-12-29T08:53:25;17.85;;;11.40;;
46290;SDS011;32023;44.444;26.006;2022-12-29T08:55:56;19.35;;;10.80;;
46290;SDS011;32023;44.444;26.006;2022-12-29T08:58:46;18.90;;;11.35;;
46290;SDS011;32023;44.444;26.006;2022-12-29T09:01:15;18.98;;;10.70;;
46290;SDS011;32023;44.444;26.006;2022-12-29T09:03:57;20.77;;;11.35;;
46290;SDS011;32023;44.444;26.006;2022-12-29T09:09:13;18.77;;;10.05;;
46290;SDS011;32023;44.444;26.006;2022-12-29T09:12:00;16.73;;;9.05;;
46290;SDS011;32023;44.444;26.006;2022-12-29T09:14:35;15.88;;;9.23;;
46290;SDS011;32023;44.444;26.006;2022-12-29T09:26:25;12.68;;;8.55;;
46290;SDS011;32023;44.444;26.006;2022-12-29T09:36:19;14.57;;;7.95;;
46290;SDS011;32023;44.444;26.006;2022-12-29T09:38:45;13.73;;;8.18;;
46290;SDS011;32023;44.444;26.006;2022-12-29T09:41:30;19.08;;;9.75;;
46290;SDS011;32023;44.444;26.006;2022-12-29T09:49:53;19.65;;;17.73;;
46290;SDS011;32023;44.444;26.006;2022-12-29T09:52:57;14.13;;;9.25;;
46290;SDS011;32023;44.444;26.006;2022-12-29T09:55:55;16.00;;;9.98;;
46290;SDS011;32023;44.444;26.006;2022-12-29T10:27:31;10.15;;;6.22;;
46290;SDS011;32023;44.444;26.006;2022-12-29T10:33:11;8.38;;;6.30;;
46290;SDS011;32023;44.444;26.006;2022-12-29T10:35:58;11.43;;;6.10;;
46290;SDS011;32023;44.444;26.006;2022-12-29T10:44:27;10.00;;;7.57;;
46290;SDS011;32023;44.444;26.006;2022-12-29T10:47:16;8.68;;;6.15;;
46290;SDS011;32023;44.444;26.006;2022-12-29T10:49:59;7.82;;;6.78;;
46290;SDS011;32023;44.444;26.006;2022-12-29T10:55:49;8.20;;;6.65;;
46290;SDS011;32023;44.444;26.006;2022-12-29T11:01:35;8.30;;;6.10;;
46290;SDS011;32023;44.444;26.006;2022-12-29T11:07:50;10.02;;;8.00;;
46290;SDS011;32023;44.444;26.006;2022-12-29T11:13:36;10.50;;;7.75;;
46290;SDS011;32023;44.444;26.006;2022-12-29T11:16:38;13.18;;;8.57;;
46290;SDS011;32023;44.444;26.006;2022-12-29T11:25:06;9.27;;;6.90;;
46290;SDS011;32023;44.444;26.006;2022-12-29T11:29:00;9.90;;;7.55;;
46290;SDS011;32023;44.444;26.006;2022-12-29T11:46:54;8.98;;;6.18;;
46290;SDS011;32023;44.444;26.006;2022-12-29T11:49:25;10.77;;;6.40;;
46290;SDS011;32023;44.444;26.006;2022-12-29T11:51:52;8.80;;;6.00;;
46290;SDS011;32023;44.444;26.006;2022-12-29T11:54:31;9.98;;;5.80;;
46290;SDS011;32023;44.444;26.006;2022-12-29T11:57:11;9.82;;;5.20;;
46290;SDS011;32023;44.444;26.006;2022-12-29T12:03:15;6.50;;;5.40;;
46290;SDS011;32023;44.444;26.006;2022-12-29T12:05:58;6.90;;;5.15;;
46290;SDS011;32023;44.444;26.006;2022-12-29T12:11:18;7.53;;;5.13;;
46290;SDS011;32023;44.444;26.006;2022-12-29T12:14:14;8.02;;;6.28;;
46290;SDS011;32023;44.444;26.006;2022-12-29T12:17:08;10.05;;;6.78;;
46290;SDS011;32023;44.444;26.006;2022-12-29T12:19:38;8.85;;;5.43;;
46290;SDS011;32023;44.444;26.006;2022-12-29T12:22:29;9.85;;;6.22;;
46290;SDS011;32023;44.444;26.006;2022-12-29T12:28:56;9.75;;;6.00;;
46290;SDS011;32023;44.444;26.006;2022-12-29T12:34:30;7.63;;;4.93;;
46290;SDS011;32023;44.444;26.006;2022-12-29T12:40:33;7.35;;;5.00;;
46290;SDS011;32023;44.444;26.006;2022-12-29T12:58:19;12.15;;;6.40;;
46290;SDS011;32023;44.444;26.006;2022-12-29T13:11:01;13.57;;;6.78;;
46290;SDS011;32023;44.444;26.006;2022-12-29T13:23:41;14.48;;;6.82;;
46290;SDS011;32023;44.444;26.006;2022-12-29T13:32:59;11.38;;;6.72;;
46290;SDS011;32023;44.444;26.006;2022-12-29T13:39:12;13.43;;;5.70;;
46290;SDS011;32023;44.444;26.006;2022-12-29T13:41:57;12.23;;;6.88;;
46290;SDS011;32023;44.444;26.006;2022-12-29T13:44:43;12.23;;;6.88;;
46290;SDS011;32023;44.444;26.006;2022-12-29T13:47:41;15.27;;;6.93;;
46290;SDS011;32023;44.444;26.006;2022-12-29T13:56:02;12.00;;;7.25;;
46290;SDS011;32023;44.444;26.006;2022-12-29T14:01:15;14.05;;;7.22;;
46290;SDS011;32023;44.444;26.006;2022-12-29T14:03:57;14.63;;;7.07;;
46290;SDS011;32023;44.444;26.006;2022-12-29T14:06:26;11.90;;;6.65;;
46290;SDS011;32023;44.444;26.006;2022-12-29T14:09:05;12.43;;;6.85;;
46290;SDS011;32023;44.444;26.006;2022-12-29T14:20:59;14.48;;;7.97;;
46290;SDS011;32023;44.444;26.006;2022-12-29T14:26:35;16.63;;;7.75;;
46290;SDS011;32023;44.444;26.006;2022-12-29T14:31:50;18.48;;;8.95;;
46290;SDS011;32023;44.444;26.006;2022-12-29T14:36:57;17.75;;;8.18;;
46290;SDS011;32023;44.444;26.006;2022-12-29T14:39:32;19.13;;;9.13;;
46290;SDS011;32023;44.444;26.006;2022-12-29T14:42:10;15.68;;;9.55;;
46290;SDS011;32023;44.444;26.006;2022-12-29T14:44:52;19.27;;;10.40;;
46290;SDS011;32023;44.444;26.006;2022-12-29T14:47:51;21.33;;;10.38;;
46290;SDS011;32023;44.444;26.006;2022-12-29T14:53:42;18.20;;;10.23;;
46290;SDS011;32023;44.444;26.006;2022-12-29T14:56:17;22.25;;;10.10;;
46290;SDS011;32023;44.444;26.006;2022-12-29T14:59:02;19.27;;;11.05;;
46290;SDS011;32023;44.444;26.006;2022-12-29T15:01:43;17.55;;;9.98;;
46290;SDS011;32023;44.444;26.006;2022-12-29T15:04:21;19.15;;;10.23;;
46290;SDS011;32023;44.444;26.006;2022-12-29T15:09:51;21.88;;;10.20;;
46290;SDS011;32023;44.444;26.006;2022-12-29T15:15:01;22.05;;;10.35;;
46290;SDS011;32023;44.444;26.006;2022-12-29T15:17:43;17.50;;;10.40;;
46290;SDS011;32023;44.444;26.006;2022-12-29T15:20:20;20.90;;;11.35;;
46290;SDS011;32023;44.444;26.006;2022-12-29T15:22:58;21.17;;;11.93;;
46290;SDS011;32023;44.444;26.006;2022-12-29T15:25:27;18.80;;;11.52;;
46290;SDS011;32023;44.444;26.006;2022-12-29T15:28:02;24.38;;;11.77;;
46290;SDS011;32023;44.444;26.006;2022-12-29T15:30:32;20.50;;;12.00;;
46290;SDS011;32023;44.444;26.006;2022-12-29T15:32:58;21.25;;;11.85;;
46290;SDS011;32023;44.444;26.006;2022-12-29T15:35:45;25.20;;;13.05;;
46290;SDS011;32023;44.444;26.006;2022-12-29T15:38:20;27.60;;;13.38;;
46290;SDS011;32023;44.444;26.006;2022-12-29T15:44:24;28.00;;;13.70;;
46290;SDS011;32023;44.444;26.006;2022-12-29T15:47:06;24.77;;;12.70;;
46290;SDS011;32023;44.444;26.006;2022-12-29T15:53:29;23.85;;;13.73;;
46290;SDS011;32023;44.444;26.006;2022-12-29T15:56:11;28.00;;;14.98;;
46290;SDS011;32023;44.444;26.006;2022-12-29T15:58:49;26.10;;;14.43;;
46290;SDS011;32023;44.444;26.006;2022-12-29T16:06:58;29.80;;;15.85;;
46290;SDS011;32023;44.444;26.006;2022-12-29T16:09:33;31.55;;;16.05;;
46290;SDS011;32023;44.444;26.006;2022-12-29T16:15:05;30.02;;;16.65;;
46290;SDS011;32023;44.444;26.006;2022-12-29T16:17:43;30.95;;;16.63;;
46290;SDS011;32023;44.444;26.006;2022-12-29T16:20:19;34.70;;;18.83;;
46290;SDS011;32023;44.444;26.006;2022-12-29T16:22:50;33.97;;;18.98;;
46290;SDS011;32023;44.444;26.006;2022-12-29T16:25:23;36.65;;;18.13;;
46290;SDS011;32023;44.444;26.006;2022-12-29T16:27:56;39.08;;;18.63;;
46290;SDS011;32023;44.444;26.006;2022-12-29T16:30:27;39.35;;;19.20;;
46290;SDS011;32023;44.444;26.006;2022-12-29T16:32:58;41.00;;;20.23;;
46290;SDS011;32023;44.444;26.006;2022-12-29T16:35:27;36.08;;;19.65;;
46290;SDS011;32023;44.444;26.006;2022-12-29T16:38:10;39.85;;;20.27;;
46290;SDS011;32023;44.444;26.006;2022-12-29T16:40:38;34.95;;;19.95;;
46290;SDS011;32023;44.444;26.006;2022-12-29T16:43:33;38.70;;;19.50;;
46290;SDS011;32023;44.444;26.006;2022-12-29T16:49:27;35.38;;;19.15;;
46290;SDS011;32023;44.444;26.006;2022-12-29T16:51:55;32.40;;;17.63;;
46290;SDS011;32023;44.444;26.006;2022-12-29T16:54:30;31.92;;;17.00;;
46290;SDS011;32023;44.444;26.006;2022-12-29T16:57:00;30.55;;;17.15;;
46290;SDS011;32023;44.444;26.006;2022-12-29T16:59:34;38.35;;;19.27;;
46290;SDS011;32023;44.444;26.006;2022-12-29T17:02:07;32.80;;;19.27;;
46290;SDS011;32023;44.444;26.006;2022-12-29T17:04:44;33.90;;;18.55;;
46290;SDS011;32023;44.444;26.006;2022-12-29T17:07:20;37.45;;;19.73;;
46290;SDS011;32023;44.444;26.006;2022-12-29T17:09:48;34.28;;;18.92;;
46290;SDS011;32023;44.444;26.006;2022-12-29T17:12:17;43.13;;;22.90;;
46290;SDS011;32023;44.444;26.006;2022-12-29T17:15:04;40.92;;;21.23;;
46290;SDS011;32023;44.444;26.006;2022-12-29T17:17:51;40.72;;;21.73;;
46290;SDS011;32023;44.444;26.006;2022-12-29T17:20:30;40.78;;;22.20;;
46290;SDS011;32023;44.444;26.006;2022-12-29T17:23:04;44.90;;;22.08;;
46290;SDS011;32023;44.444;26.006;2022-12-29T17:25:40;44.15;;;23.13;;
46290;SDS011;32023;44.444;26.006;2022-12-29T17:30:45;42.20;;;22.45;;
46290;SDS011;32023;44.444;26.006;2022-12-29T17:33:13;39.30;;;22.23;;
46290;SDS011;32023;44.444;26.006;2022-12-29T17:35:46;44.67;;;24.25;;
46290;SDS011;32023;44.444;26.006;2022-12-29T17:38:17;42.53;;;23.20;;
46290;SDS011;32023;44.444;26.006;2022-12-29T17:40:48;39.78;;;22.92;;
46290;SDS011;32023;44.444;26.006;2022-12-29T17:43:18;40.30;;;23.35;;
46290;SDS011;32023;44.444;26.006;2022-12-29T17:45:54;44.70;;;24.58;;
46290;SDS011;32023;44.444;26.006;2022-12-29T17:48:22;42.60;;;24.85;;
46290;SDS011;32023;44.444;26.006;2022-12-29T17:50:58;48.30;;;27.17;;
46290;SDS011;32023;44.444;26.006;2022-12-29T17:53:25;55.95;;;28.15;;
46290;SDS011;32023;44.444;26.006;2022-12-29T17:55:54;51.95;;;27.30;;
46290;SDS011;32023;44.444;26.006;2022-12-29T17:58:21;45.80;;;27.17;;
46290;SDS011;32023;44.444;26.006;2022-12-29T18:00:53;43.78;;;25.08;;
46290;SDS011;32023;44.444;26.006;2022-12-29T18:03:29;48.83;;;26.58;;
46290;SDS011;32023;44.444;26.006;2022-12-29T18:06:03;51.47;;;25.35;;
46290;SDS011;32023;44.444;26.006;2022-12-29T18:08:33;45.05;;;26.48;;
46290;SDS011;32023;44.444;26.006;2022-12-29T18:11:12;46.05;;;24.95;;
46290;SDS011;32023;44.444;26.006;2022-12-29T18:13:56;50.40;;;25.17;;
46290;SDS011;32023;44.444;26.006;2022-12-29T18:16:23;52.03;;;26.80;;
46290;SDS011;32023;44.444;26.006;2022-12-29T18:18:50;69.63;;;31.77;;
46290;SDS011;32023;44.444;26.006;2022-12-29T18:21:20;68.95;;;32.88;;
46290;SDS011;32023;44.444;26.006;2022-12-29T18:23:51;51.47;;;27.25;;
46290;SDS011;32023;44.444;26.006;2022-12-29T18:26:24;57.10;;;29.10;;
46290;SDS011;32023;44.444;26.006;2022-12-29T18:29:08;53.58;;;29.85;;
46290;SDS011;32023;44.444;26.006;2022-12-29T18:31:34;57.30;;;28.83;;
46290;SDS011;32023;44.444;26.006;2022-12-29T18:34:02;52.33;;;28.67;;
46290;SDS011;32023;44.444;26.006;2022-12-29T18:36:52;53.10;;;29.13;;
46290;SDS011;32023;44.444;26.006;2022-12-29T18:39:47;54.80;;;28.10;;
46290;SDS011;32023;44.444;26.006;2022-12-29T18:42:16;47.13;;;26.58;;
46290;SDS011;32023;44.444;26.006;2022-12-29T18:44:42;47.85;;;26.38;;
46290;SDS011;32023;44.444;26.006;2022-12-29T18:47:11;47.80;;;26.80;;
46290;SDS011;32023;44.444;26.006;2022-12-29T18:49:47;46.60;;;25.27;;
46290;SDS011;32023;44.444;26.006;2022-12-29T18:52:20;46.97;;;25.23;;
46290;SDS011;32023;44.444;26.006;2022-12-29T18:55:00;53.25;;;27.70;;
46290;SDS011;32023;44.444;26.006;2022-12-29T18:57:26;43.72;;;24.73;;
46290;SDS011;32023;44.444;26.006;2022-12-29T19:00:02;45.00;;;25.10;;
46290;SDS011;32023;44.444;26.006;2022-12-29T19:02:29;47.53;;;26.15;;
46290;SDS011;32023;44.444;26.006;2022-12-29T19:07:54;51.67;;;29.05;;
46290;SDS011;32023;44.444;26.006;2022-12-29T19:10:24;51.95;;;28.92;;
46290;SDS011;32023;44.444;26.006;2022-12-29T19:12:53;46.08;;;26.60;;
46290;SDS011;32023;44.444;26.006;2022-12-29T19:15:25;51.28;;;27.95;;
46290;SDS011;32023;44.444;26.006;2022-12-29T19:18:01;53.00;;;26.80;;
46290;SDS011;32023;44.444;26.006;2022-12-29T19:20:38;50.35;;;28.25;;
46290;SDS011;32023;44.444;26.006;2022-12-29T19:23:13;54.03;;;30.10;;
46290;SDS011;32023;44.444;26.006;2022-12-29T19:28:42;55.33;;;28.05;;
46290;SDS011;32023;44.444;26.006;2022-12-29T19:31:33;53.28;;;28.73;;
46290;SDS011;32023;44.444;26.006;2022-12-29T19:33:59;51.90;;;28.75;;
46290;SDS011;32023;44.444;26.006;2022-12-29T19:36:38;58.60;;;30.40;;
46290;SDS011;32023;44.444;26.006;2022-12-29T19:39:14;64.85;;;31.27;;
46290;SDS011;32023;44.444;26.006;2022-12-29T19:41:47;56.55;;;31.55;;
46290;SDS011;32023;44.444;26.006;2022-12-29T19:47:36;55.72;;;29.33;;
46290;SDS011;32023;44.444;26.006;2022-12-29T19:52:57;56.10;;;30.27;;
46290;SDS011;32023;44.444;26.006;2022-12-29T19:55:25;52.97;;;29.85;;
46290;SDS011;32023;44.444;26.006;2022-12-29T19:58:10;53.70;;;27.98;;
46290;SDS011;32023;44.444;26.006;2022-12-29T20:01:16;52.75;;;29.42;;
46290;SDS011;32023;44.444;26.006;2022-12-29T20:04:19;54.42;;;28.83;;